Terminal Aerodrome Forecast
Issued by NWS Pocatello, ID

Home | Current Version | Previous Version | Text Only | Print | Product List | Glossary On
Versions: 1 2 3 4 5 6 7 8 9 10 11 12 13 14 15 16 17 18 19 20 21 22 23
000
FTUS45 KPIH 250000 AAA
TAFPIH
TAF AMD
KPIH 250041Z 2501/2524 VRB03KT P6SM FEW008 OVC025
     FM250800 VRB04KT 4SM BR FEW004 BKN008 OVC025
     FM251300 13007KT 2SM BR OVC004
     FM252100 20006KT P6SM FEW004 SCT008 OVC015=

USA.gov is the U.S. government's official web portal to all federal, state and local government web resources and services.